sensor_id;sensor_type;location;lat;lon;timestamp;temperature;humidity
61912;DHT22;49973;52.084;5.412;2023-02-28T00:01:36;-0.30;99.90
61912;DHT22;49973;52.084;5.412;2023-02-28T00:04:05;-0.30;99.90
61912;DHT22;49973;52.084;5.412;2023-02-28T00:06:38;-0.30;99.90
61912;DHT22;49973;52.084;5.412;2023-02-28T00:09:06;-0.20;99.90
61912;DHT22;49973;52.084;5.412;2023-02-28T00:11:35;-0.20;99.90
61912;DHT22;49973;52.084;5.412;2023-02-28T00:14:05;-0.10;99.90
61912;DHT22;49973;52.084;5.412;2023-02-28T00:16:34;0.00;99.90
61912;DHT22;49973;52.084;5.412;2023-02-28T00:19:02;0.00;99.90
61912;DHT22;49973;52.084;5.412;2023-02-28T00:21:31;0.10;99.90
61912;DHT22;49973;52.084;5.412;2023-02-28T00:24:01;0.10;99.90
61912;DHT22;49973;52.084;5.412;2023-02-28T00:26:30;0.20;99.90
61912;DHT22;49973;52.084;5.412;2023-02-28T00:28:59;0.30;99.90
61912;DHT22;49973;52.084;5.412;2023-02-28T00:31:27;0.40;99.90
61912;DHT22;49973;52.084;5.412;2023-02-28T00:33:57;0.40;99.90
61912;DHT22;49973;52.084;5.412;2023-02-28T00:36:25;0.30;99.90
61912;DHT22;49973;52.084;5.412;2023-02-28T00:38:54;0.60;99.90
61912;DHT22;49973;52.084;5.412;2023-02-28T00:41:25;0.70;99.90
61912;DHT22;49973;52.084;5.412;2023-02-28T00:43:54;0.70;99.90
61912;DHT22;49973;52.084;5.412;2023-02-28T00:46:23;0.80;99.90
61912;DHT22;49973;52.084;5.412;2023-02-28T00:48:52;1.00;99.90
61912;DHT22;49973;52.084;5.412;2023-02-28T00:51:20;1.00;99.90
61912;DHT22;49973;52.084;5.412;2023-02-28T00:53:52;1.10;99.90
61912;DHT22;49973;52.084;5.412;2023-02-28T00:56:25;1.10;99.90
61912;DHT22;49973;52.084;5.412;2023-02-28T00:58:54;1.20;99.90
61912;DHT22;49973;52.084;5.412;2023-02-28T01:01:23;1.30;99.90
61912;DHT22;49973;52.084;5.412;2023-02-28T01:03:51;1.40;99.90
61912;DHT22;49973;52.084;5.412;2023-02-28T01:06:20;1.50;99.90
61912;DHT22;49973;52.084;5.412;2023-02-28T01:08:49;1.40;99.90
61912;DHT22;49973;52.084;5.412;2023-02-28T01:11:18;1.50;99.90
61912;DHT22;49973;52.084;5.412;2023-02-28T01:13:48;1.50;99.90
61912;DHT22;49973;52.084;5.412;2023-02-28T01:16:17;1.60;99.90
61912;DHT22;49973;52.084;5.412;2023-02-28T01:18:45;1.60;99.90
61912;DHT22;49973;52.084;5.412;2023-02-28T01:21:16;1.70;99.90
61912;DHT22;49973;52.084;5.412;2023-02-28T01:23:46;1.80;99.90
61912;DHT22;49973;52.084;5.412;2023-02-28T01:26:16;1.80;99.90
61912;DHT22;49973;52.084;5.412;2023-02-28T01:28:46;1.90;99.90
61912;DHT22;49973;52.084;5.412;2023-02-28T01:31:17;1.90;99.90
61912;DHT22;49973;52.084;5.412;2023-02-28T01:33:46;2.00;99.90
61912;DHT22;49973;52.084;5.412;2023-02-28T01:36:17;2.10;99.90
61912;DHT22;49973;52.084;5.412;2023-02-28T01:38:46;2.10;99.90
61912;DHT22;49973;52.084;5.412;2023-02-28T01:41:18;2.10;99.90
61912;DHT22;49973;52.084;5.412;2023-02-28T01:43:56;2.20;99.90
61912;DHT22;49973;52.084;5.412;2023-02-28T01:46:27;2.20;99.90
61912;DHT22;49973;52.084;5.412;2023-02-28T01:49:00;2.20;99.90
61912;DHT22;49973;52.084;5.412;2023-02-28T01:51:35;2.30;99.90
61912;DHT22;49973;52.084;5.412;2023-02-28T01:54:08;2.30;99.90
61912;DHT22;49973;52.084;5.412;2023-02-28T01:56:43;2.30;99.90
61912;DHT22;49973;52.084;5.412;2023-02-28T01:59:17;2.40;99.90
61912;DHT22;49973;52.084;5.412;2023-02-28T02:01:50;2.40;99.90
61912;DHT22;49973;52.084;5.412;2023-02-28T02:04:20;2.40;99.90
61912;DHT22;49973;52.084;5.412;2023-02-28T02:06:50;2.60;99.90
61912;DHT22;49973;52.084;5.412;2023-02-28T02:09:19;2.50;99.90
61912;DHT22;49973;52.084;5.412;2023-02-28T02:11:47;2.40;99.90
61912;DHT22;49973;52.084;5.412;2023-02-28T02:14:31;2.60;99.90
61912;DHT22;49973;52.084;5.412;2023-02-28T02:17:14;2.50;99.90
61912;DHT22;49973;52.084;5.412;2023-02-28T02:20:08;2.50;99.90
61912;DHT22;49973;52.084;5.412;2023-02-28T02:23:07;2.50;99.90
61912;DHT22;49973;52.084;5.412;2023-02-28T02:25:44;2.50;99.90
61912;DHT22;49973;52.084;5.412;2023-02-28T02:28:40;2.50;99.90
61912;DHT22;49973;52.084;5.412;2023-02-28T02:31:32;2.60;99.90
61912;DHT22;49973;52.084;5.412;2023-02-28T02:34:29;2.60;99.90
61912;DHT22;49973;52.084;5.412;2023-02-28T02:37:08;2.60;99.90
61912;DHT22;49973;52.084;5.412;2023-02-28T02:39:44;2.60;99.90
61912;DHT22;49973;52.084;5.412;2023-02-28T02:42:20;2.60;99.90
61912;DHT22;49973;52.084;5.412;2023-02-28T02:44:54;2.60;99.90
61912;DHT22;49973;52.084;5.412;2023-02-28T02:47:27;2.60;99.90
61912;DHT22;49973;52.084;5.412;2023-02-28T02:50:03;2.70;99.90
61912;DHT22;49973;52.084;5.412;2023-02-28T02:52:38;2.70;99.90
61912;DHT22;49973;52.084;5.412;2023-02-28T02:55:09;2.70;99.90
61912;DHT22;49973;52.084;5.412;2023-02-28T02:57:45;2.70;99.90
61912;DHT22;49973;52.084;5.412;2023-02-28T03:00:16;2.70;99.90
61912;DHT22;49973;52.084;5.412;2023-02-28T03:02:48;2.80;99.90
61912;DHT22;49973;52.084;5.412;2023-02-28T03:05:21;2.80;99.90
61912;DHT22;49973;52.084;5.412;2023-02-28T03:07:52;2.80;99.90
61912;DHT22;49973;52.084;5.412;2023-02-28T03:10:33;2.90;99.90
61912;DHT22;49973;52.084;5.412;2023-02-28T03:16:40;2.80;99.90
61912;DHT22;49973;52.084;5.412;2023-02-28T03:19:38;2.80;99.90
61912;DHT22;49973;52.084;5.412;2023-02-28T03:22:30;2.90;99.90
61912;DHT22;49973;52.084;5.412;2023-02-28T03:25:07;2.90;99.90
61912;DHT22;49973;52.084;5.412;2023-02-28T03:27:40;2.90;99.90
61912;DHT22;49973;52.084;5.412;2023-02-28T03:30:13;2.80;99.90
61912;DHT22;49973;52.084;5.412;2023-02-28T03:32:46;2.90;99.90
61912;DHT22;49973;52.084;5.412;2023-02-28T03:35:22;2.90;99.90
61912;DHT22;49973;52.084;5.412;2023-02-28T03:37:56;2.90;99.90
61912;DHT22;49973;52.084;5.412;2023-02-28T03:40:32;2.90;99.90
61912;DHT22;49973;52.084;5.412;2023-02-28T03:43:04;2.90;99.90
61912;DHT22;49973;52.084;5.412;2023-02-28T03:45:39;2.90;99.90
61912;DHT22;49973;52.084;5.412;2023-02-28T03:48:13;2.90;99.90
61912;DHT22;49973;52.084;5.412;2023-02-28T03:50:45;2.90;99.90
61912;DHT22;49973;52.084;5.412;2023-02-28T03:53:20;2.90;99.90
61912;DHT22;49973;52.084;5.412;2023-02-28T03:55:53;2.90;99.90
61912;DHT22;49973;52.084;5.412;2023-02-28T03:58:28;2.90;99.90
61912;DHT22;49973;52.084;5.412;2023-02-28T04:01:03;3.00;99.90
61912;DHT22;49973;52.084;5.412;2023-02-28T04:03:36;2.90;99.90
61912;DHT22;49973;52.084;5.412;2023-02-28T04:06:07;2.90;99.90
61912;DHT22;49973;52.084;5.412;2023-02-28T04:08:38;2.90;99.90
61912;DHT22;49973;52.084;5.412;2023-02-28T04:11:16;2.90;99.90
61912;DHT22;49973;52.084;5.412;2023-02-28T04:13:46;2.80;99.90
61912;DHT22;49973;52.084;5.412;2023-02-28T04:16:15;2.80;99.90
61912;DHT22;49973;52.084;5.412;2023-02-28T04:19:00;2.80;99.90
61912;DHT22;49973;52.084;5.412;2023-02-28T04:21:31;2.80;99.90
61912;DHT22;49973;52.084;5.412;2023-02-28T04:24:02;2.80;99.90
61912;DHT22;49973;52.084;5.412;2023-02-28T04:26:32;2.70;99.90
61912;DHT22;49973;52.084;5.412;2023-02-28T04:29:02;2.70;99.90
61912;DHT22;49973;52.084;5.412;2023-02-28T04:31:31;2.70;99.90
61912;DHT22;49973;52.084;5.412;2023-02-28T04:34:01;2.70;99.90
61912;DHT22;49973;52.084;5.412;2023-02-28T04:36:30;2.70;99.90
61912;DHT22;49973;52.084;5.412;2023-02-28T04:38:59;2.70;99.90
61912;DHT22;49973;52.084;5.412;2023-02-28T04:41:29;2.70;99.90
61912;DHT22;49973;52.084;5.412;2023-02-28T04:43:59;2.70;99.90
61912;DHT22;49973;52.084;5.412;2023-02-28T04:46:27;2.70;99.90
61912;DHT22;49973;52.084;5.412;2023-02-28T04:48:57;2.70;99.90
61912;DHT22;49973;52.084;5.412;2023-02-28T04:51:26;2.70;99.90
61912;DHT22;49973;52.084;5.412;2023-02-28T04:53:55;2.70;99.90
61912;DHT22;49973;52.084;5.412;2023-02-28T04:56:24;2.60;99.90
61912;DHT22;49973;52.084;5.412;2023-02-28T04:58:54;2.60;99.90
61912;DHT22;49973;52.084;5.412;2023-02-28T05:01:24;2.60;99.90
61912;DHT22;49973;52.084;5.412;2023-02-28T05:03:54;2.50;99.90
61912;DHT22;49973;52.084;5.412;2023-02-28T05:06:24;2.50;99.90
61912;DHT22;49973;52.084;5.412;2023-02-28T05:08:54;2.40;99.90
61912;DHT22;49973;52.084;5.412;2023-02-28T05:11:24;2.40;99.90
61912;DHT22;49973;52.084;5.412;2023-02-28T05:13:55;2.30;99.90
61912;DHT22;49973;52.084;5.412;2023-02-28T05:16:24;2.30;99.90
61912;DHT22;49973;52.084;5.412;2023-02-28T05:18:53;2.20;99.90
61912;DHT22;49973;52.084;5.412;2023-02-28T05:21:25;2.20;99.90
61912;DHT22;49973;52.084;5.412;2023-02-28T05:23:56;2.10;99.90
61912;DHT22;49973;52.084;5.412;2023-02-28T05:26:26;2.10;99.90
61912;DHT22;49973;52.084;5.412;2023-02-28T05:28:56;2.10;99.90
61912;DHT22;49973;52.084;5.412;2023-02-28T05:31:25;2.00;99.90
61912;DHT22;49973;52.084;5.412;2023-02-28T05:33:54;2.00;99.90
61912;DHT22;49973;52.084;5.412;2023-02-28T05:36:23;2.00;99.90
61912;DHT22;49973;52.084;5.412;2023-02-28T05:38:52;2.00;99.90
61912;DHT22;49973;52.084;5.412;2023-02-28T05:41:21;2.00;99.90
61912;DHT22;49973;52.084;5.412;2023-02-28T05:43:50;2.00;99.90
61912;DHT22;49973;52.084;5.412;2023-02-28T05:46:20;1.90;99.90
61912;DHT22;49973;52.084;5.412;2023-02-28T05:48:49;1.90;99.90
61912;DHT22;49973;52.084;5.412;2023-02-28T05:51:18;2.00;99.90
61912;DHT22;49973;52.084;5.412;2023-02-28T05:53:46;2.00;99.90
61912;DHT22;49973;52.084;5.412;2023-02-28T05:56:16;2.00;99.90
61912;DHT22;49973;52.084;5.412;2023-02-28T05:58:45;2.00;99.90
61912;DHT22;49973;52.084;5.412;2023-02-28T06:01:24;2.00;99.90
61912;DHT22;49973;52.084;5.412;2023-02-28T06:03:55;2.00;99.90
61912;DHT22;49973;52.084;5.412;2023-02-28T06:06:23;2.00;99.90
61912;DHT22;49973;52.084;5.412;2023-02-28T06:08:52;1.90;99.90
61912;DHT22;49973;52.084;5.412;2023-02-28T06:11:21;1.90;99.90
61912;DHT22;49973;52.084;5.412;2023-02-28T06:13:55;1.90;99.90
61912;DHT22;49973;52.084;5.412;2023-02-28T06:16:26;1.80;99.90
61912;DHT22;49973;52.084;5.412;2023-02-28T06:18:56;1.80;99.90
61912;DHT22;49973;52.084;5.412;2023-02-28T06:21:25;1.80;99.90
61912;DHT22;49973;52.084;5.412;2023-02-28T06:23:55;1.70;99.90
61912;DHT22;49973;52.084;5.412;2023-02-28T06:26:24;1.70;99.90
61912;DHT22;49973;52.084;5.412;2023-02-28T06:28:54;1.70;99.90
61912;DHT22;49973;52.084;5.412;2023-02-28T06:31:25;1.60;99.90
61912;DHT22;49973;52.084;5.412;2023-02-28T06:33:56;1.60;99.90
61912;DHT22;49973;52.084;5.412;2023-02-28T06:36:25;1.60;99.90
61912;DHT22;49973;52.084;5.412;2023-02-28T06:38:54;1.60;99.90
61912;DHT22;49973;52.084;5.412;2023-02-28T06:41:24;1.60;99.90
61912;DHT22;49973;52.084;5.412;2023-02-28T06:43:54;1.60;99.90
61912;DHT22;49973;52.084;5.412;2023-02-28T06:46:24;1.60;99.90
61912;DHT22;49973;52.084;5.412;2023-02-28T06:48:53;1.60;99.90
61912;DHT22;49973;52.084;5.412;2023-02-28T06:51:21;1.60;99.90
61912;DHT22;49973;52.084;5.412;2023-02-28T06:53:51;1.60;99.90
61912;DHT22;49973;52.084;5.412;2023-02-28T06:56:20;1.70;99.90
61912;DHT22;49973;52.084;5.412;2023-02-28T06:58:50;1.70;99.90
61912;DHT22;49973;52.084;5.412;2023-02-28T07:01:20;1.70;99.90
61912;DHT22;49973;52.084;5.412;2023-02-28T07:03:53;1.80;99.90
61912;DHT22;49973;52.084;5.412;2023-02-28T07:06:22;1.80;99.90
61912;DHT22;49973;52.084;5.412;2023-02-28T07:08:52;1.80;99.90
61912;DHT22;49973;52.084;5.412;2023-02-28T07:11:22;1.80;99.90
61912;DHT22;49973;52.084;5.412;2023-02-28T07:13:53;1.80;99.90
61912;DHT22;49973;52.084;5.412;2023-02-28T07:16:23;1.90;99.90
61912;DHT22;49973;52.084;5.412;2023-02-28T07:18:54;1.90;99.90
61912;DHT22;49973;52.084;5.412;2023-02-28T07:21:23;1.90;99.90
61912;DHT22;49973;52.084;5.412;2023-02-28T07:23:51;2.00;99.90
61912;DHT22;49973;52.084;5.412;2023-02-28T07:26:21;2.00;99.90
61912;DHT22;49973;52.084;5.412;2023-02-28T07:28:49;2.00;99.90
61912;DHT22;49973;52.084;5.412;2023-02-28T07:31:18;2.10;99.90
61912;DHT22;49973;52.084;5.412;2023-02-28T07:33:47;2.10;99.90
61912;DHT22;49973;52.084;5.412;2023-02-28T07:36:17;2.20;99.90
61912;DHT22;49973;52.084;5.412;2023-02-28T07:38:47;2.20;99.90
61912;DHT22;49973;52.084;5.412;2023-02-28T07:41:21;2.30;99.90
61912;DHT22;49973;52.084;5.412;2023-02-28T07:43:55;2.30;99.90
61912;DHT22;49973;52.084;5.412;2023-02-28T07:46:25;2.40;99.90
61912;DHT22;49973;52.084;5.412;2023-02-28T07:48:56;2.40;99.90
61912;DHT22;49973;52.084;5.412;2023-02-28T07:51:29;2.50;99.90
61912;DHT22;49973;52.084;5.412;2023-02-28T07:53:58;2.70;99.90
61912;DHT22;49973;52.084;5.412;2023-02-28T07:56:26;2.60;99.90
61912;DHT22;49973;52.084;5.412;2023-02-28T07:58:56;2.70;99.90
61912;DHT22;49973;52.084;5.412;2023-02-28T08:01:25;2.80;99.90
61912;DHT22;49973;52.084;5.412;2023-02-28T08:03:55;2.70;99.90
61912;DHT22;49973;52.084;5.412;2023-02-28T08:06:25;2.80;99.90
61912;DHT22;49973;52.084;5.412;2023-02-28T08:08:55;2.90;99.90
61912;DHT22;49973;52.084;5.412;2023-02-28T08:11:24;3.00;99.90
61912;DHT22;49973;52.084;5.412;2023-02-28T08:13:54;3.10;99.90
61912;DHT22;49973;52.084;5.412;2023-02-28T08:16:22;3.20;99.90
61912;DHT22;49973;52.084;5.412;2023-02-28T08:18:52;3.30;99.90
61912;DHT22;49973;52.084;5.412;2023-02-28T08:21:21;3.40;99.90
61912;DHT22;49973;52.084;5.412;2023-02-28T08:23:51;3.50;99.90
61912;DHT22;49973;52.084;5.412;2023-02-28T08:26:21;3.50;99.90
61912;DHT22;49973;52.084;5.412;2023-02-28T08:28:49;3.60;99.90
61912;DHT22;49973;52.084;5.412;2023-02-28T08:31:19;3.60;99.90
61912;DHT22;49973;52.084;5.412;2023-02-28T08:33:48;3.60;99.90
61912;DHT22;49973;52.084;5.412;2023-02-28T08:36:19;3.60;99.90
61912;DHT22;49973;52.084;5.412;2023-02-28T08:38:48;3.70;99.90
61912;DHT22;49973;52.084;5.412;2023-02-28T08:41:16;3.70;99.90
61912;DHT22;49973;52.084;5.412;2023-02-28T08:43:46;3.70;99.90
61912;DHT22;49973;52.084;5.412;2023-02-28T08:46:15;3.70;99.90
61912;DHT22;49973;52.084;5.412;2023-02-28T08:48:44;3.70;99.90
61912;DHT22;49973;52.084;5.412;2023-02-28T08:51:14;3.70;99.90
61912;DHT22;49973;52.084;5.412;2023-02-28T08:53:45;3.80;99.90
61912;DHT22;49973;52.084;5.412;2023-02-28T08:56:17;3.80;99.90
61912;DHT22;49973;52.084;5.412;2023-02-28T08:58:48;3.90;99.90
61912;DHT22;49973;52.084;5.412;2023-02-28T09:01:18;4.00;99.90
61912;DHT22;49973;52.084;5.412;2023-02-28T09:03:49;4.10;99.90
61912;DHT22;49973;52.084;5.412;2023-02-28T09:06:19;4.20;99.90
61912;DHT22;49973;52.084;5.412;2023-02-28T09:08:49;4.40;99.90
61912;DHT22;49973;52.084;5.412;2023-02-28T09:11:18;4.60;99.90
61912;DHT22;49973;52.084;5.412;2023-02-28T09:13:48;4.80;99.90
61912;DHT22;49973;52.084;5.412;2023-02-28T09:16:17;5.00;99.90
61912;DHT22;49973;52.084;5.412;2023-02-28T09:18:46;5.30;99.90
61912;DHT22;49973;52.084;5.412;2023-02-28T09:21:16;5.50;99.90
61912;DHT22;49973;52.084;5.412;2023-02-28T09:23:47;5.80;99.90
61912;DHT22;49973;52.084;5.412;2023-02-28T09:26:18;5.70;99.90
61912;DHT22;49973;52.084;5.412;2023-02-28T09:28:48;5.80;99.90
61912;DHT22;49973;52.084;5.412;2023-02-28T09:31:19;5.90;99.90
61912;DHT22;49973;52.084;5.412;2023-02-28T09:33:49;6.00;99.90
61912;DHT22;49973;52.084;5.412;2023-02-28T09:36:18;6.00;99.90
61912;DHT22;49973;52.084;5.412;2023-02-28T09:38:49;6.00;99.90
61912;DHT22;49973;52.084;5.412;2023-02-28T09:41:22;6.10;99.90
61912;DHT22;49973;52.084;5.412;2023-02-28T09:43:56;6.10;99.90
61912;DHT22;49973;52.084;5.412;2023-02-28T09:46:29;6.00;99.90
61912;DHT22;49973;52.084;5.412;2023-02-28T09:49:02;6.00;99.90
61912;DHT22;49973;52.084;5.412;2023-02-28T09:51:37;6.00;99.90
61912;DHT22;49973;52.084;5.412;2023-02-28T09:54:14;6.00;99.90
61912;DHT22;49973;52.084;5.412;2023-02-28T09:56:49;6.10;99.90
61912;DHT22;49973;52.084;5.412;2023-02-28T09:59:31;6.30;99.90
61912;DHT22;49973;52.084;5.412;2023-02-28T10:02:13;6.50;99.90
61912;DHT22;49973;52.084;5.412;2023-02-28T10:04:48;6.60;99.90
61912;DHT22;49973;52.084;5.412;2023-02-28T10:07:40;7.00;99.90
61912;DHT22;49973;52.084;5.412;2023-02-28T10:10:17;6.80;99.90
61912;DHT22;49973;52.084;5.412;2023-02-28T10:12:51;6.90;99.90
61912;DHT22;49973;52.084;5.412;2023-02-28T10:15:24;7.00;99.90
61912;DHT22;49973;52.084;5.412;2023-02-28T10:17:57;7.00;99.90
61912;DHT22;49973;52.084;5.412;2023-02-28T10:20:38;6.90;99.90
61912;DHT22;49973;52.084;5.412;2023-02-28T10:23:13;6.80;99.90
61912;DHT22;49973;52.084;5.412;2023-02-28T10:25:45;6.60;99.90
61912;DHT22;49973;52.084;5.412;2023-02-28T10:28:16;6.40;99.90
61912;DHT22;49973;52.084;5.412;2023-02-28T10:30:51;6.30;99.90
61912;DHT22;49973;52.084;5.412;2023-02-28T10:33:23;6.10;99.90
61912;DHT22;49973;52.084;5.412;2023-02-28T10:35:53;5.90;99.90
61912;DHT22;49973;52.084;5.412;2023-02-28T10:38:23;5.80;99.90
61912;DHT22;49973;52.084;5.412;2023-02-28T10:41:03;5.70;99.90
61912;DHT22;49973;52.084;5.412;2023-02-28T10:43:32;5.60;99.90
61912;DHT22;49973;52.084;5.412;2023-02-28T10:46:09;5.50;99.90
61912;DHT22;49973;52.084;5.412;2023-02-28T10:48:42;5.40;99.90
61912;DHT22;49973;52.084;5.412;2023-02-28T10:51:13;5.40;99.90
61912;DHT22;49973;52.084;5.412;2023-02-28T10:53:48;5.30;99.90
61912;DHT22;49973;52.084;5.412;2023-02-28T10:56:29;5.30;99.90
61912;DHT22;49973;52.084;5.412;2023-02-28T10:59:00;5.30;99.90
61912;DHT22;49973;52.084;5.412;2023-02-28T11:01:39;5.30;99.90
61912;DHT22;49973;52.084;5.412;2023-02-28T11:04:19;5.20;99.90
61912;DHT22;49973;52.084;5.412;2023-02-28T11:06:56;5.20;99.90
61912;DHT22;49973;52.084;5.412;2023-02-28T11:09:30;5.20;99.90
61912;DHT22;49973;52.084;5.412;2023-02-28T11:12:00;5.20;99.90
61912;DHT22;49973;52.084;5.412;2023-02-28T11:14:31;5.20;99.90
61912;DHT22;49973;52.084;5.412;2023-02-28T11:17:13;5.20;99.90
61912;DHT22;49973;52.084;5.412;2023-02-28T11:19:45;5.20;99.90
61912;DHT22;49973;52.084;5.412;2023-02-28T11:22:19;5.30;99.90
61912;DHT22;49973;52.084;5.412;2023-02-28T11:24:50;5.30;99.90
61912;DHT22;49973;52.084;5.412;2023-02-28T11:27:43;5.40;99.90
61912;DHT22;49973;52.084;5.412;2023-02-28T11:30:28;5.30;99.90
61912;DHT22;49973;52.084;5.412;2023-02-28T11:33:00;5.30;99.90
61912;DHT22;49973;52.084;5.412;2023-02-28T11:35:31;5.30;99.90
61912;DHT22;49973;52.084;5.412;2023-02-28T11:38:04;5.30;99.90
61912;DHT22;49973;52.084;5.412;2023-02-28T11:40:41;5.20;99.90
61912;DHT22;49973;52.084;5.412;2023-02-28T11:43:24;5.50;99.90
61912;DHT22;49973;52.084;5.412;2023-02-28T11:46:13;5.50;99.90
61912;DHT22;49973;52.084;5.412;2023-02-28T11:48:55;5.50;99.90
61912;DHT22;49973;52.084;5.412;2023-02-28T11:51:30;5.60;99.90
61912;DHT22;49973;52.084;5.412;2023-02-28T11:54:23;5.60;99.90
61912;DHT22;49973;52.084;5.412;2023-02-28T11:56:58;5.70;99.90
61912;DHT22;49973;52.084;5.412;2023-02-28T11:59:43;5.70;99.90
61912;DHT22;49973;52.084;5.412;2023-02-28T12:02:24;5.80;99.90
61912;DHT22;49973;52.084;5.412;2023-02-28T12:05:08;5.70;99.90
61912;DHT22;49973;52.084;5.412;2023-02-28T12:07:49;5.80;99.90
61912;DHT22;49973;52.084;5.412;2023-02-28T12:10:22;5.70;99.90
61912;DHT22;49973;52.084;5.412;2023-02-28T12:13:06;5.80;99.90
61912;DHT22;49973;52.084;5.412;2023-02-28T12:15:56;5.70;99.90
61912;DHT22;49973;52.084;5.412;2023-02-28T12:18:39;5.80;99.90
61912;DHT22;49973;52.084;5.412;2023-02-28T12:21:20;5.80;99.90
61912;DHT22;49973;52.084;5.412;2023-02-28T12:24:00;5.80;99.90
61912;DHT22;49973;52.084;5.412;2023-02-28T12:26:36;5.80;99.90
61912;DHT22;49973;52.084;5.412;2023-02-28T12:29:17;5.80;99.90
61912;DHT22;49973;52.084;5.412;2023-02-28T12:31:49;5.80;99.90
61912;DHT22;49973;52.084;5.412;2023-02-28T12:34:24;5.90;99.90
61912;DHT22;49973;52.084;5.412;2023-02-28T12:36:58;5.90;99.90
61912;DHT22;49973;52.084;5.412;2023-02-28T12:39:31;5.90;99.90
61912;DHT22;49973;52.084;5.412;2023-02-28T12:42:19;6.00;99.90
61912;DHT22;49973;52.084;5.412;2023-02-28T12:44:54;5.90;99.90
61912;DHT22;49973;52.084;5.412;2023-02-28T12:47:25;6.00;99.90
61912;DHT22;49973;52.084;5.412;2023-02-28T12:49:56;6.00;99.90
61912;DHT22;49973;52.084;5.412;2023-02-28T12:52:34;6.00;99.90
61912;DHT22;49973;52.084;5.412;2023-02-28T12:55:06;6.00;99.90
61912;DHT22;49973;52.084;5.412;2023-02-28T12:57:47;6.00;99.90
61912;DHT22;49973;52.084;5.412;2023-02-28T13:00:19;6.00;99.90
61912;DHT22;49973;52.084;5.412;2023-02-28T13:08:57;6.10;99.90
61912;DHT22;49973;52.084;5.412;2023-02-28T13:11:29;6.00;99.90
61912;DHT22;49973;52.084;5.412;2023-02-28T13:14:01;6.00;99.90
61912;DHT22;49973;52.084;5.412;2023-02-28T13:16:57;6.00;99.90
61912;DHT22;49973;52.084;5.412;2023-02-28T13:19:28;6.00;99.90
61912;DHT22;49973;52.084;5.412;2023-02-28T13:21:59;6.00;99.90
61912;DHT22;49973;52.084;5.412;2023-02-28T13:24:45;6.00;99.90
61912;DHT22;49973;52.084;5.412;2023-02-28T13:27:32;6.10;99.90
61912;DHT22;49973;52.084;5.412;2023-02-28T13:33:25;6.10;99.90
61912;DHT22;49973;52.084;5.412;2023-02-28T13:36:08;6.20;99.90
61912;DHT22;49973;52.084;5.412;2023-02-28T13:38:41;6.10;99.90
61912;DHT22;49973;52.084;5.412;2023-02-28T13:41:44;6.20;99.90
61912;DHT22;49973;52.084;5.412;2023-02-28T13:44:15;6.10;99.90
61912;DHT22;49973;52.084;5.412;2023-02-28T13:47:22;6.10;99.90
61912;DHT22;49973;52.084;5.412;2023-02-28T13:49:52;6.10;99.90
61912;DHT22;49973;52.084;5.412;2023-02-28T13:52:23;6.10;99.90
61912;DHT22;49973;52.084;5.412;2023-02-28T13:54:58;6.10;99.90
61912;DHT22;49973;52.084;5.412;2023-02-28T13:57:42;6.20;99.90
61912;DHT22;49973;52.084;5.412;2023-02-28T14:00:23;6.10;99.90
61912;DHT22;49973;52.084;5.412;2023-02-28T14:03:12;6.10;99.90
61912;DHT22;49973;52.084;5.412;2023-02-28T14:05:43;6.10;99.90
61912;DHT22;49973;52.084;5.412;2023-02-28T14:08:15;6.20;99.90
61912;DHT22;49973;52.084;5.412;2023-02-28T14:10:46;6.20;99.90
61912;DHT22;49973;52.084;5.412;2023-02-28T14:13:40;6.20;99.90
61912;DHT22;49973;52.084;5.412;2023-02-28T14:16:13;6.20;99.90
61912;DHT22;49973;52.084;5.412;2023-02-28T14:18:49;6.20;99.90
61912;DHT22;49973;52.084;5.412;2023-02-28T14:21:24;6.20;99.90
61912;DHT22;49973;52.084;5.412;2023-02-28T14:27:09;6.20;99.90
61912;DHT22;49973;52.084;5.412;2023-02-28T14:32:54;6.20;99.90
61912;DHT22;49973;52.084;5.412;2023-02-28T14:35:39;6.30;99.90
61912;DHT22;49973;52.084;5.412;2023-02-28T14:38:15;6.40;99.90
61912;DHT22;49973;52.084;5.412;2023-02-28T14:40:46;6.20;99.90
61912;DHT22;49973;52.084;5.412;2023-02-28T14:43:20;6.20;99.90
61912;DHT22;49973;52.084;5.412;2023-02-28T14:45:53;6.30;99.90
61912;DHT22;49973;52.084;5.412;2023-02-28T14:48:22;6.20;99.90
61912;DHT22;49973;52.084;5.412;2023-02-28T14:50:55;6.20;99.90
61912;DHT22;49973;52.084;5.412;2023-02-28T14:53:27;6.20;99.90
61912;DHT22;49973;52.084;5.412;2023-02-28T14:55:56;6.20;99.90
61912;DHT22;49973;52.084;5.412;2023-02-28T14:58:28;6.20;99.90
61912;DHT22;49973;52.084;5.412;2023-02-28T15:00:59;6.20;99.90
61912;DHT22;49973;52.084;5.412;2023-02-28T15:03:32;6.20;99.90
61912;DHT22;49973;52.084;5.412;2023-02-28T15:06:03;6.20;99.90
61912;DHT22;49973;52.084;5.412;2023-02-28T15:08:33;6.30;99.90
61912;DHT22;49973;52.084;5.412;2023-02-28T15:11:06;6.30;99.90
61912;DHT22;49973;52.084;5.412;2023-02-28T15:13:38;6.20;99.90
61912;DHT22;49973;52.084;5.412;2023-02-28T15:16:12;6.20;99.90
61912;DHT22;49973;52.084;5.412;2023-02-28T15:18:46;6.30;99.90
61912;DHT22;49973;52.084;5.412;2023-02-28T15:21:17;6.20;99.90
61912;DHT22;49973;52.084;5.412;2023-02-28T15:23:50;6.20;99.90
61912;DHT22;49973;52.084;5.412;2023-02-28T15:26:22;6.20;99.90
61912;DHT22;49973;52.084;5.412;2023-02-28T15:28:54;6.20;99.90
61912;DHT22;49973;52.084;5.412;2023-02-28T15:31:29;6.20;99.90
61912;DHT22;49973;52.084;5.412;2023-02-28T15:34:21;6.20;99.90
61912;DHT22;49973;52.084;5.412;2023-02-28T15:36:54;6.20;99.90
61912;DHT22;49973;52.084;5.412;2023-02-28T15:39:24;6.10;99.90
61912;DHT22;49973;52.084;5.412;2023-02-28T15:42:11;6.20;99.90
61912;DHT22;49973;52.084;5.412;2023-02-28T15:44:40;6.20;99.90
61912;DHT22;49973;52.084;5.412;2023-02-28T15:47:17;6.10;99.90
61912;DHT22;49973;52.084;5.412;2023-02-28T15:49:49;6.10;99.90
61912;DHT22;49973;52.084;5.412;2023-02-28T15:52:29;6.10;99.90
61912;DHT22;49973;52.084;5.412;2023-02-28T15:55:08;6.20;99.90
61912;DHT22;49973;52.084;5.412;2023-02-28T15:57:39;6.20;99.90
61912;DHT22;49973;52.084;5.412;2023-02-28T16:00:12;6.00;99.90
61912;DHT22;49973;52.084;5.412;2023-02-28T16:02:43;6.00;99.90
61912;DHT22;49973;52.084;5.412;2023-02-28T16:05:22;6.10;99.90
61912;DHT22;49973;52.084;5.412;2023-02-28T16:07:56;6.00;99.90
61912;DHT22;49973;52.084;5.412;2023-02-28T16:10:26;6.00;99.90
61912;DHT22;49973;52.084;5.412;2023-02-28T16:12:56;6.00;99.90
61912;DHT22;49973;52.084;5.412;2023-02-28T16:15:28;5.90;99.90
61912;DHT22;49973;52.084;5.412;2023-02-28T16:17:58;5.90;99.90
61912;DHT22;49973;52.084;5.412;2023-02-28T16:20:29;5.90;99.90
61912;DHT22;49973;52.084;5.412;2023-02-28T16:22:58;5.90;99.90
61912;DHT22;49973;52.084;5.412;2023-02-28T16:25:35;5.80;99.90
61912;DHT22;49973;52.084;5.412;2023-02-28T16:28:05;5.90;99.90
61912;DHT22;49973;52.084;5.412;2023-02-28T16:30:37;5.80;99.90
61912;DHT22;49973;52.084;5.412;2023-02-28T16:33:08;5.80;99.90
61912;DHT22;49973;52.084;5.412;2023-02-28T16:35:37;5.70;99.90
61912;DHT22;49973;52.084;5.412;2023-02-28T16:38:06;5.70;99.90
61912;DHT22;49973;52.084;5.412;2023-02-28T16:40:36;5.60;99.90
61912;DHT22;49973;52.084;5.412;2023-02-28T16:43:07;5.60;99.90